createdAt,value
2023-02-12T00:01:29.580Z,92.04
2023-02-12T00:03:58.696Z,92.36
2023-02-12T00:06:27.759Z,93.20
2023-02-12T00:08:57.731Z,93.27
2023-02-12T00:11:28.915Z,93.80
2023-02-12T00:13:58.568Z,93.95
2023-02-12T00:16:29.689Z,94.35
2023-02-12T00:19:00.242Z,94.71
2023-02-12T00:21:30.608Z,94.41
2023-02-12T00:23:59.654Z,94.25
2023-02-12T00:26:27.944Z,94.89
2023-02-12T00:28:56.848Z,94.68
2023-02-12T00:31:28.460Z,94.12
2023-02-12T00:33:57.245Z,94.63
2023-02-12T00:36:27.646Z,94.98
2023-02-12T00:38:57.950Z,94.63
2023-02-12T00:41:27.374Z,94.63
2023-02-12T00:43:55.794Z,94.81
2023-02-12T00:46:24.676Z,94.82
2023-02-12T00:48:53.153Z,94.34
2023-02-12T00:51:21.629Z,94.37
2023-02-12T00:53:49.960Z,94.27
2023-02-12T00:56:18.258Z,94.09
2023-02-12T00:58:46.584Z,93.21
2023-02-12T01:01:15.170Z,92.09
2023-02-12T01:03:43.604Z,91.49
2023-02-12T01:06:11.968Z,90.70
2023-02-12T01:08:40.300Z,90.81
2023-02-12T01:11:08.826Z,90.71
2023-02-12T01:13:37.300Z,89.76
2023-02-12T01:16:17.965Z,87.30
2023-02-12T01:18:47.253Z,87.73
2023-02-12T01:21:21.385Z,87.65
2023-02-12T01:23:50.489Z,87.50
2023-02-12T01:26:20.543Z,86.97
2023-02-12T01:28:54.645Z,86.91
2023-02-12T01:31:25.661Z,86.10
2023-02-12T01:33:56.897Z,85.63
2023-02-12T01:36:25.823Z,85.65
2023-02-12T01:38:54.138Z,85.11
2023-02-12T01:41:25.820Z,85.49
2023-02-12T01:44:15.151Z,84.70
2023-02-12T01:46:44.960Z,84.86
2023-02-12T01:49:21.779Z,83.95
2023-02-12T01:51:55.479Z,83.51
2023-02-12T01:54:26.849Z,82.29
2023-02-12T01:56:56.107Z,81.53
2023-02-12T01:59:26.011Z,81.60
2023-02-12T02:01:56.138Z,81.71
2023-02-12T02:04:33.781Z,80.62
2023-02-12T02:07:05.561Z,80.86
2023-02-12T02:09:37.795Z,80.35
2023-02-12T02:12:25.457Z,79.99
2023-02-12T02:14:57.617Z,79.89
2023-02-12T02:17:43.952Z,79.97
2023-02-12T02:20:18.521Z,79.06
2023-02-12T02:22:55.794Z,78.74
2023-02-12T02:26:01.066Z,78.18
2023-02-12T02:28:41.164Z,77.83
2023-02-12T02:31:48.245Z,76.59
2023-02-12T02:34:16.511Z,76.47
2023-02-12T02:37:18.587Z,77.34
2023-02-12T02:39:57.096Z,76.25
2023-02-12T02:42:34.227Z,76.99
2023-02-12T02:45:13.745Z,75.71
2023-02-12T02:47:50.893Z,75.85
2023-02-12T02:50:24.186Z,75.54
2023-02-12T02:53:20.774Z,75.61
2023-02-12T02:55:54.810Z,75.17
2023-02-12T02:58:46.478Z,73.97
2023-02-12T03:01:24.397Z,73.08
2023-02-12T03:04:03.805Z,74.06
2023-02-12T03:06:46.072Z,73.02
2023-02-12T03:09:29.647Z,72.11
2023-02-12T03:12:04.809Z,70.87
2023-02-12T03:14:41.259Z,69.59
2023-02-12T03:17:19.708Z,70.37
2023-02-12T03:20:08.523Z,70.04
2023-02-12T03:22:42.055Z,70.60
2023-02-12T03:25:17.882Z,70.86
2023-02-12T03:27:54.267Z,68.92
2023-02-12T03:30:23.862Z,67.62
2023-02-12T03:33:24.143Z,68.86
2023-02-12T03:36:09.122Z,68.07
2023-02-12T03:38:37.368Z,69.76
2023-02-12T03:41:22.041Z,68.58
2023-02-12T03:44:14.529Z,67.57
2023-02-12T03:47:05.269Z,66.47
2023-02-12T03:49:59.303Z,68.62
2023-02-12T03:52:28.275Z,66.39
2023-02-12T03:54:56.718Z,66.78
2023-02-12T03:57:32.298Z,65.79
2023-02-12T04:00:03.258Z,65.00
2023-02-12T04:02:31.855Z,65.07
2023-02-12T04:05:05.435Z,63.23
2023-02-12T04:07:34.987Z,64.50
2023-02-12T04:10:03.748Z,64.01
2023-02-12T04:12:41.184Z,64.49
2023-02-12T04:15:18.556Z,63.85
2023-02-12T04:18:10.847Z,63.96
2023-02-12T04:20:51.034Z,61.90
2023-02-12T04:23:36.509Z,62.70
2023-02-12T04:26:30.871Z,62.26
2023-02-12T04:29:27.543Z,62.95
2023-02-12T04:32:01.964Z,60.05
2023-02-12T04:34:48.846Z,63.17
2023-02-12T04:37:19.393Z,62.11
2023-02-12T04:39:49.681Z,59.01
2023-02-12T04:42:18.061Z,57.35
2023-02-12T04:44:46.978Z,62.19
2023-02-12T04:47:17.129Z,57.38
2023-02-12T04:49:45.663Z,58.68
2023-02-12T04:52:14.010Z,60.42
2023-02-12T04:54:42.324Z,60.91
2023-02-12T04:57:11.110Z,57.59
2023-02-12T04:59:39.382Z,57.37
2023-02-12T05:02:07.821Z,58.19
2023-02-12T05:04:36.151Z,56.96
2023-02-12T05:07:04.428Z,55.57
2023-02-12T05:09:32.718Z,57.22
2023-02-12T05:12:01.034Z,56.59
2023-02-12T05:14:29.446Z,57.11
2023-02-12T05:16:57.861Z,56.30
2023-02-12T05:19:26.464Z,55.99
2023-02-12T05:21:54.757Z,55.30
2023-02-12T05:24:23.181Z,56.65
2023-02-12T05:26:52.809Z,54.98
2023-02-12T05:29:21.190Z,54.15
2023-02-12T05:31:49.579Z,54.36
2023-02-12T05:34:17.900Z,54.07
2023-02-12T05:36:46.220Z,55.37
2023-02-12T05:39:14.535Z,56.33
2023-02-12T05:41:42.816Z,55.99
2023-02-12T05:44:12.960Z,53.48
2023-02-12T05:46:41.335Z,54.60
2023-02-12T05:49:11.018Z,53.12
2023-02-12T05:51:39.492Z,54.75
2023-02-12T05:54:08.666Z,53.17
2023-02-12T05:56:43.034Z,53.63
2023-02-12T05:59:17.480Z,54.35
2023-02-12T06:01:47.320Z,50.96
2023-02-12T06:04:19.242Z,52.01
2023-02-12T06:06:47.785Z,52.19
2023-02-12T06:09:16.271Z,51.23
2023-02-12T06:11:45.062Z,53.48
2023-02-12T06:14:17.644Z,54.87
2023-02-12T06:16:48.126Z,51.10
2023-02-12T06:19:16.660Z,51.76
2023-02-12T06:21:45.045Z,52.25
2023-02-12T06:24:17.745Z,54.47
2023-02-12T06:26:47.211Z,53.83
2023-02-12T06:29:15.568Z,52.71
2023-02-12T06:31:44.435Z,54.98
2023-02-12T06:34:14.800Z,55.10
2023-02-12T06:36:48.455Z,54.65
2023-02-12T06:39:18.099Z,52.37
2023-02-12T06:41:46.661Z,53.08
2023-02-12T06:44:15.138Z,54.72
2023-02-12T06:46:43.629Z,51.87
2023-02-12T06:49:15.205Z,54.75
2023-02-12T06:51:43.723Z,51.28
2023-02-12T06:54:16.936Z,51.74
2023-02-12T06:56:46.143Z,49.90
2023-02-12T06:59:16.857Z,48.55
2023-02-12T07:01:45.276Z,49.04
2023-02-12T07:04:13.936Z,47.47
2023-02-12T07:06:42.537Z,48.45
2023-02-12T07:09:11.254Z,47.62
2023-02-12T07:11:39.854Z,48.31
2023-02-12T07:14:08.870Z,46.10
2023-02-12T07:16:37.262Z,45.86
2023-02-12T07:19:05.609Z,45.51
2023-02-12T07:21:34.474Z,48.25
2023-02-12T07:24:02.809Z,50.43
2023-02-12T07:26:31.164Z,45.48
2023-02-12T07:29:00.190Z,47.23
2023-02-12T07:31:28.575Z,45.31
2023-02-12T07:33:58.677Z,45.83
2023-02-12T07:36:31.144Z,46.49
2023-02-12T07:39:00.019Z,49.75
2023-02-12T07:41:31.106Z,47.43
2023-02-12T07:44:01.849Z,45.28
2023-02-12T07:46:36.106Z,44.41
2023-02-12T07:49:07.087Z,46.21
2023-02-12T07:51:36.706Z,46.00
2023-02-12T07:54:05.575Z,47.62
2023-02-12T07:56:36.373Z,46.04
2023-02-12T07:59:13.523Z,47.11
2023-02-12T08:01:48.745Z,48.66
2023-02-12T08:04:20.259Z,44.66
2023-02-12T08:06:50.807Z,46.65
2023-02-12T08:09:25.097Z,47.65
2023-02-12T08:11:54.305Z,44.60
2023-02-12T08:14:23.681Z,45.14
2023-02-12T08:16:52.948Z,46.56
2023-02-12T08:19:25.794Z,44.24
2023-02-12T08:21:56.396Z,44.55
2023-02-12T08:24:25.935Z,44.62
2023-02-12T08:26:54.409Z,45.83
2023-02-12T08:29:26.182Z,43.77
2023-02-12T08:32:00.030Z,46.10
2023-02-12T08:34:33.350Z,43.94
2023-02-12T08:37:02.533Z,42.91
2023-02-12T08:39:31.572Z,44.28
2023-02-12T08:42:02.209Z,44.11
2023-02-12T08:44:31.060Z,42.82
2023-02-12T08:46:59.601Z,43.72
2023-02-12T08:49:30.632Z,44.43
2023-02-12T08:52:00.825Z,44.52
2023-02-12T08:54:31.497Z,44.57
2023-02-12T08:57:02.433Z,43.69
2023-02-12T08:59:31.753Z,42.12
2023-02-12T09:02:00.446Z,43.00
2023-02-12T09:04:30.407Z,45.67
2023-02-12T09:06:59.048Z,44.34
2023-02-12T09:09:27.367Z,44.71
2023-02-12T09:11:55.670Z,43.40
2023-02-12T09:14:26.757Z,42.88
2023-02-12T09:16:56.044Z,44.06
2023-02-12T09:19:24.847Z,44.04
2023-02-12T09:21:57.160Z,45.16
2023-02-12T09:24:28.468Z,41.94
2023-02-12T09:26:57.180Z,42.37
2023-02-12T09:29:25.773Z,43.26
2023-02-12T09:31:54.361Z,41.64
2023-02-12T09:34:22.891Z,41.89
2023-02-12T09:36:51.219Z,41.95
2023-02-12T09:39:19.570Z,44.27
2023-02-12T09:42:02.349Z,41.71
2023-02-12T09:44:36.383Z,41.39
2023-02-12T09:47:14.938Z,43.37
2023-02-12T09:49:58.419Z,44.44
2023-02-12T09:52:29.358Z,43.55
2023-02-12T09:54:58.129Z,43.48
2023-02-12T09:57:37.118Z,40.92
2023-02-12T10:00:07.715Z,40.85
2023-02-12T10:02:41.405Z,40.68
2023-02-12T10:05:31.172Z,41.58
2023-02-12T10:08:25.309Z,43.88
2023-02-12T10:10:54.863Z,43.41
2023-02-12T10:13:32.857Z,42.37
2023-02-12T10:16:39.412Z,41.50
2023-02-12T10:19:13.944Z,43.14
2023-02-12T10:21:49.386Z,43.61
2023-02-12T10:24:17.657Z,43.42
2023-02-12T10:26:50.550Z,45.00
2023-02-12T10:29:28.490Z,45.67
2023-02-12T10:32:03.064Z,43.77
2023-02-12T10:34:37.116Z,43.34
2023-02-12T10:37:34.837Z,44.53
2023-02-12T10:40:18.900Z,44.45
2023-02-12T10:42:50.793Z,44.79
2023-02-12T10:45:23.737Z,43.56
2023-02-12T10:47:55.794Z,45.38
2023-02-12T10:50:59.470Z,43.89
2023-02-12T10:53:35.277Z,44.10
2023-02-12T10:56:20.280Z,44.77
2023-02-12T10:58:51.834Z,44.76
2023-02-12T11:01:26.892Z,45.38
2023-02-12T11:04:00.058Z,46.96
2023-02-12T11:06:34.454Z,45.57
2023-02-12T11:09:02.856Z,46.62
2023-02-12T11:11:33.000Z,46.63
2023-02-12T11:14:22.512Z,47.12
2023-02-12T11:16:56.569Z,46.71
2023-02-12T11:19:35.939Z,46.73
2023-02-12T11:22:19.779Z,46.87
2023-02-12T11:25:00.593Z,47.79
2023-02-12T11:27:31.990Z,48.21
2023-02-12T11:30:17.333Z,48.09
2023-02-12T11:32:45.936Z,49.36
2023-02-12T11:35:19.230Z,49.48
2023-02-12T11:37:48.622Z,49.50
2023-02-12T11:40:29.961Z,49.60
2023-02-12T11:43:10.461Z,49.89
2023-02-12T11:45:45.939Z,49.16
2023-02-12T11:48:48.271Z,50.04
2023-02-12T11:51:33.063Z,51.74
2023-02-12T11:54:07.185Z,50.40
2023-02-12T11:56:45.184Z,52.66
2023-02-12T11:59:42.701Z,54.15
2023-02-12T12:02:27.298Z,54.14
2023-02-12T12:05:04.397Z,53.96
2023-02-12T12:07:38.722Z,54.97
2023-02-12T12:10:42.202Z,53.48
2023-02-12T12:13:35.078Z,54.17
2023-02-12T12:16:33.404Z,55.26
2023-02-12T12:19:41.360Z,56.05
2023-02-12T12:22:37.725Z,56.79
2023-02-12T12:25:36.189Z,56.59
2023-02-12T12:28:23.093Z,57.89
2023-02-12T12:31:09.513Z,58.94
2023-02-12T12:33:43.590Z,58.66
2023-02-12T12:36:14.865Z,58.10
2023-02-12T12:39:18.286Z,56.43
2023-02-12T12:42:23.716Z,56.20
2023-02-12T12:45:16.781Z,55.91
2023-02-12T12:48:07.193Z,55.32
2023-02-12T12:51:05.819Z,55.52
2023-02-12T12:53:58.718Z,55.78
2023-02-12T12:56:35.678Z,56.68
2023-02-12T13:00:01.744Z,57.32
2023-02-12T13:02:44.786Z,59.13
2023-02-12T13:05:52.603Z,59.09
2023-02-12T13:08:39.177Z,58.51
2023-02-12T13:11:30.722Z,59.76
2023-02-12T13:14:13.760Z,60.62
2023-02-12T13:16:50.533Z,61.38
2023-02-12T13:19:48.385Z,61.93
2023-02-12T13:22:32.028Z,63.12
2023-02-12T13:25:28.279Z,63.93
2023-02-12T13:27:59.524Z,65.13
2023-02-12T13:30:40.816Z,65.49
2023-02-12T13:33:18.074Z,66.52
2023-02-12T13:35:51.016Z,67.77
2023-02-12T13:38:26.904Z,68.17
2023-02-12T13:41:01.431Z,68.97
2023-02-12T13:43:32.419Z,69.45
2023-02-12T13:46:30.313Z,69.71
2023-02-12T13:49:13.556Z,69.73
2023-02-12T13:51:57.870Z,69.87
2023-02-12T13:54:58.277Z,69.24
2023-02-12T13:57:26.720Z,69.03
2023-02-12T13:59:56.951Z,69.33
2023-02-12T14:02:30.611Z,70.58
2023-02-12T14:05:01.864Z,69.31
2023-02-12T14:07:57.638Z,69.60
2023-02-12T14:10:31.151Z,68.93
2023-02-12T14:13:24.357Z,69.77
2023-02-12T14:15:59.564Z,69.88
2023-02-12T14:18:35.717Z,69.75
2023-02-12T14:21:13.214Z,69.73
2023-02-12T14:23:43.491Z,70.19
2023-02-12T14:26:25.658Z,69.53
2023-02-12T14:29:08.103Z,69.64
2023-02-12T14:31:39.062Z,69.20
2023-02-12T14:34:07.478Z,68.18
2023-02-12T14:36:43.665Z,68.86
2023-02-12T14:39:30.352Z,67.82
2023-02-12T14:42:38.528Z,67.92
2023-02-12T14:45:07.033Z,68.65
2023-02-12T14:47:35.276Z,68.95
2023-02-12T14:50:13.908Z,68.51
2023-02-12T14:52:49.888Z,69.03
2023-02-12T14:55:29.456Z,68.91
2023-02-12T14:58:04.642Z,70.08
2023-02-12T15:00:40.715Z,70.38
2023-02-12T15:03:15.316Z,70.93
2023-02-12T15:06:05.415Z,71.18
2023-02-12T15:08:46.094Z,72.11
2023-02-12T15:11:35.198Z,72.55
2023-02-12T15:14:29.369Z,73.73
2023-02-12T15:17:03.820Z,74.97
2023-02-12T15:19:44.348Z,75.65
2023-02-12T15:22:31.117Z,76.39
2023-02-12T15:25:18.288Z,77.75
2023-02-12T15:27:49.795Z,77.83
2023-02-12T15:30:25.904Z,77.71
2023-02-12T15:32:57.998Z,76.69
2023-02-12T15:35:32.372Z,76.45
2023-02-12T15:38:02.182Z,76.44
2023-02-12T15:40:32.741Z,75.39
2023-02-12T15:43:07.286Z,76.84
2023-02-12T15:45:37.804Z,77.27
2023-02-12T15:48:19.263Z,76.75
2023-02-12T15:50:52.888Z,76.47
2023-02-12T15:53:23.455Z,76.19
2023-02-12T15:55:53.070Z,75.79
2023-02-12T15:58:53.381Z,76.11
2023-02-12T16:01:28.233Z,76.83
2023-02-12T16:04:08.755Z,77.16
2023-02-12T16:06:38.006Z,78.03
2023-02-12T16:09:15.668Z,78.52
2023-02-12T16:11:47.185Z,79.04
2023-02-12T16:14:55.624Z,79.44
2023-02-12T16:17:39.135Z,78.47
2023-02-12T16:20:10.536Z,78.48
2023-02-12T16:22:42.249Z,78.04
2023-02-12T16:25:32.742Z,77.99
2023-02-12T16:28:07.954Z,76.52
2023-02-12T16:30:43.713Z,76.94
2023-02-12T16:33:46.328Z,76.43
2023-02-12T16:36:26.534Z,76.16
2023-02-12T16:39:06.873Z,76.12
2023-02-12T16:41:57.013Z,75.82
2023-02-12T16:44:32.368Z,75.52
2023-02-12T16:47:02.770Z,74.66
2023-02-12T16:49:31.197Z,73.74
2023-02-12T16:52:39.197Z,74.56
2023-02-12T16:55:18.998Z,74.04
2023-02-12T16:57:47.680Z,74.81
2023-02-12T17:00:18.652Z,74.99
2023-02-12T17:02:48.237Z,75.39
2023-02-12T17:05:19.334Z,76.49
2023-02-12T17:07:47.665Z,77.69
2023-02-12T17:10:18.350Z,79.13
2023-02-12T17:12:52.528Z,79.97
2023-02-12T17:15:33.890Z,79.81
2023-02-12T17:18:02.262Z,79.15
2023-02-12T17:20:30.585Z,78.16
2023-02-12T17:23:00.389Z,78.07
2023-02-12T17:25:31.054Z,78.21
2023-02-12T17:27:59.683Z,78.02
2023-02-12T17:30:29.853Z,78.01
2023-02-12T17:32:58.204Z,78.83
2023-02-12T17:35:26.548Z,78.19
2023-02-12T17:37:54.904Z,78.34
2023-02-12T17:40:23.327Z,79.10
2023-02-12T17:42:51.662Z,78.45
2023-02-12T17:45:20.108Z,78.89
2023-02-12T17:47:48.459Z,79.70
2023-02-12T17:50:19.416Z,79.16
2023-02-12T17:52:48.115Z,79.59
2023-02-12T17:55:18.351Z,79.30
2023-02-12T17:57:46.683Z,78.43
2023-02-12T18:00:15.845Z,78.44
2023-02-12T18:02:44.215Z,78.80
2023-02-12T18:05:12.556Z,79.81
2023-02-12T18:07:40.952Z,79.81
2023-02-12T18:10:11.571Z,80.79
2023-02-12T18:12:40.296Z,80.87
2023-02-12T18:15:10.231Z,81.27
2023-02-12T18:17:38.797Z,80.57
2023-02-12T18:20:07.957Z,82.41
2023-02-12T18:22:36.340Z,81.96
2023-02-12T18:25:04.988Z,84.17
2023-02-12T18:27:33.339Z,84.36
2023-02-12T18:30:01.722Z,85.10
2023-02-12T18:32:30.080Z,85.07
2023-02-12T18:34:58.423Z,86.31
2023-02-12T18:37:26.784Z,85.93
2023-02-12T18:39:55.159Z,86.21
2023-02-12T18:42:23.533Z,88.18
2023-02-12T18:44:55.550Z,89.66
2023-02-12T18:47:23.941Z,88.61
2023-02-12T18:49:52.281Z,88.85
2023-02-12T18:52:20.651Z,89.23
2023-02-12T18:54:49.190Z,88.45
2023-02-12T18:57:17.524Z,88.20
2023-02-12T18:59:45.861Z,88.91
2023-02-12T19:02:15.123Z,88.29
2023-02-12T19:04:43.720Z,89.45
2023-02-12T19:07:12.150Z,89.73
2023-02-12T19:09:40.621Z,89.50
2023-02-12T19:12:09.915Z,89.55
2023-02-12T19:14:38.208Z,89.20
2023-02-12T19:17:06.501Z,89.06
2023-02-12T19:19:34.832Z,89.57
2023-02-12T19:22:03.685Z,89.03
2023-02-12T19:24:45.972Z,88.32
2023-02-12T19:27:15.255Z,88.56
2023-02-12T19:29:44.343Z,87.82
2023-02-12T19:32:12.716Z,86.16
2023-02-12T19:34:42.162Z,87.20
2023-02-12T19:37:11.832Z,89.51
2023-02-12T19:39:40.155Z,90.48
2023-02-12T19:42:08.469Z,90.39
2023-02-12T19:44:37.620Z,90.96
2023-02-12T19:47:06.185Z,90.87
2023-02-12T19:49:34.522Z,90.61
2023-02-12T19:52:02.853Z,90.34
2023-02-12T19:54:31.180Z,90.43
2023-02-12T19:56:59.474Z,90.07
2023-02-12T19:59:28.447Z,86.99
2023-02-12T20:01:57.484Z,88.71
2023-02-12T20:04:26.546Z,89.19
2023-02-12T20:06:55.046Z,89.15
2023-02-12T20:09:23.964Z,90.46
2023-02-12T20:11:52.989Z,90.75
2023-02-12T20:14:23.515Z,91.35
2023-02-12T20:16:54.657Z,90.73
2023-02-12T20:19:33.204Z,89.70
2023-02-12T20:22:02.554Z,91.29
2023-02-12T20:24:33.801Z,92.04
2023-02-12T20:27:03.450Z,92.44
2023-02-12T20:29:32.065Z,92.18
2023-02-12T20:32:00.421Z,92.28
2023-02-12T20:34:29.016Z,92.30
2023-02-12T20:36:57.876Z,92.87
2023-02-12T20:39:26.262Z,92.41
2023-02-12T20:41:54.595Z,92.35
2023-02-12T20:44:23.574Z,92.77
2023-02-12T20:46:56.422Z,92.07
2023-02-12T20:49:26.421Z,91.78
2023-02-12T20:51:54.911Z,89.71
2023-02-12T20:56:52.042Z,93.43
2023-02-12T20:59:21.183Z,93.59
2023-02-12T21:01:50.041Z,93.44
2023-02-12T21:04:20.643Z,93.56
2023-02-12T21:06:49.656Z,93.79
2023-02-12T21:09:19.576Z,93.75
2023-02-12T21:11:48.405Z,94.18
2023-02-12T21:14:25.079Z,94.33
2023-02-12T21:16:56.060Z,94.32
2023-02-12T21:19:24.968Z,93.76
2023-02-12T21:21:53.392Z,92.97
2023-02-12T21:24:24.968Z,93.00
2023-02-12T21:26:55.013Z,93.08
2023-02-12T21:29:24.270Z,94.35
2023-02-12T21:31:52.962Z,94.26
2023-02-12T21:34:24.421Z,92.88
2023-02-12T21:36:55.559Z,94.02
2023-02-12T21:39:28.273Z,93.91
2023-02-12T21:42:03.731Z,94.07
2023-02-12T21:44:36.471Z,93.81
2023-02-12T21:47:05.098Z,94.32
2023-02-12T21:49:33.483Z,94.30
2023-02-12T21:52:04.660Z,94.27
2023-02-12T21:54:33.529Z,94.59
2023-02-12T21:57:02.341Z,95.20
2023-02-12T21:59:32.322Z,94.68
2023-02-12T22:02:02.711Z,95.03
2023-02-12T22:04:31.072Z,95.84
2023-02-12T22:07:03.903Z,95.19
2023-02-12T22:09:32.679Z,95.30
2023-02-12T22:12:01.029Z,95.82
2023-02-12T22:14:29.416Z,96.21
2023-02-12T22:16:57.760Z,95.09
2023-02-12T22:19:26.049Z,95.77
2023-02-12T22:21:54.397Z,96.37
2023-02-12T22:24:23.080Z,96.34
2023-02-12T22:26:51.522Z,96.97
2023-02-12T22:29:20.794Z,97.28
2023-02-12T22:31:50.509Z,97.35
2023-02-12T22:34:20.042Z,93.30
2023-02-12T22:36:48.949Z,92.27
2023-02-12T22:39:18.535Z,90.12
2023-02-12T22:41:47.532Z,90.37
2023-02-12T22:44:18.382Z,88.48
2023-02-12T22:46:48.747Z,88.61
2023-02-12T22:49:18.019Z,89.12
2023-02-12T22:51:46.425Z,89.12
2023-02-12T22:54:19.570Z,88.55
2023-02-12T22:56:51.707Z,89.94
2023-02-12T22:59:20.383Z,90.21
2023-02-12T23:01:48.696Z,90.74
2023-02-12T23:04:19.126Z,91.71
2023-02-12T23:06:48.200Z,91.64
2023-02-12T23:09:19.862Z,91.33
2023-02-12T23:11:49.263Z,90.83
2023-02-12T23:14:18.053Z,90.50
2023-02-12T23:16:47.074Z,90.90
2023-02-12T23:19:15.963Z,89.68
2023-02-12T23:21:44.447Z,90.53
2023-02-12T23:24:16.323Z,88.42
2023-02-12T23:26:44.949Z,90.79
2023-02-12T23:29:13.744Z,91.59
2023-02-12T23:31:42.188Z,91.26
2023-02-12T23:34:10.666Z,92.51
2023-02-12T23:36:38.952Z,93.06
2023-02-12T23:39:07.319Z,93.34
2023-02-12T23:41:35.626Z,92.72
2023-02-12T23:44:04.613Z,92.19
2023-02-12T23:46:33.324Z,92.49
2023-02-12T23:49:01.810Z,92.57
2023-02-12T23:51:30.395Z,93.46
2023-02-12T23:53:58.842Z,93.34
2023-02-12T23:56:27.252Z,93.49
2023-02-12T23:58:58.404Z,93.45
